Aérodrome :
LOGIN :

S'inscrire | Disclaimer

   EN    FR    IT 

 










Légende :    VFR   VFR Marginal   IFR   IFR Intensif   IFR Très Intensif
Visi : 
Plafond : 
>= 8 km
>= 3000ft
5 à 8 km
1000 à 3000 ft
1500m à 5 km
500 à 1000 ft
800 à 1500m
200 à 500 ft
< 800m
< 200 ft
Symboles :   Orages  Brouillard  Fortes neiges  Fortes précipitations  Vent > 20 kt
SIGMETs :   Divers  Orages  Givrage  Turbulence  Onde Orograph.  Cendres Volcan.







- Altitude de l'aérodrome : 12 ft
- Code IATA : NCE
- Voir les cartes d'approche


LFMN - Nice

DERNIER METAR :
  • 270600Z 07005KT 9999 FEW016 BKN030 18/15 Q1012 NOSIG

METARs EXPIRÉS :
  • 270530Z 07007KT 9999 FEW017 BKN033 18/15 Q1012 NOSIG
  • 270500Z 09009KT 9999 FEW017 BKN033 18/14 Q1012 NOSIG
  • 270400Z 04006KT 9999 FEW021 BKN027 17/15 Q1012 NOSIG
  • 270330Z 05003KT 9999 FEW021 BKN033 17/15 Q1012 NOSIG

TAF TAF LFMN
Valide du 27 à 03h jusqu'au 28 à 09h UTC


270200Z 2703/2809 VRB02KT 9999 FEW015 BKN030
PROB40
TEMPO 2703/2707 07010KT 4000 BR BKN008
BECMG 2707/2709 15005KT
BECMG 2709/2711 NSC
BECMG 2717/2719 33005KT
TEMPO 2723/2803 20010KT
PROB40
TEMPO 2803/2807 2000 BR OVC005
BECMG 2807/2809 20010KT
ATIS : +33 4 93 17 21 16
Pas de NOTAMs connus pour ce terrain.



MET'MAP, la Météo Aéronautique d'un coup d'oeil ! - Copyright ORBIFLY Décembre 2007 - Disclaimer

ORBIFLY MET'MAP TEAM :

Programmation & Développement : Alexandra Zaïnal
Conception & Développement : Baudouin d'Aumeries
Co-Programmation & Développement : Marc-Olivier Méhu
Soutien technique & logistique : Manuel Goepfert

Contact : metmap@orbifly.com




SOURCES & CREDITS :

   NOAA